EZY34RN LMML-EGNT
Flight info
| Callsign | EZY34RN |
|---|---|
| Flight time | N/A |
| Altitude | 34000 |
| Route | GZO M622 SOPIR DCT MABOX DCT ADEXI DCT ADUKA DCT ABKON DCT QUENN DCT RUGOX/N0443F360 DCT MADKA DCT AJO DCT OMEDA DCT MERLU DCT PIGOS DCT BARSO DCT OKTET DCT GIPNO DCT BULOL DCT IDAVO DCT BAGBI DCT SIZZA DCT LAULY DCT BRY DCT CLM DCT KOPOR DCT VESAN DCT RATUK DCT SOVAT L613 MAMUL UY250 RIMTO |
| Aircraft | A320/M-SDE2E3FGHIJ1RWXYZ/LB1 |
Departure
| Time | N/A |
|---|---|
| Airport | Malta International Airport (LMML) |
Arrival
| Time | 2026-05-03 21:35 |
|---|---|
| Airport | Newcastle International Airport (EGNT) |
| Time | Latitude | Longitude | Altitude | Speed | Heading |
|---|---|---|---|---|---|
| 2026-05-03 20:15 | 47.40605 | 4.20840 | 34015 ft | 444 kts | 330° |
| 2026-05-03 20:15 | 47.46245 | 4.17092 | 34019 ft | 443 kts | 330° |
| 2026-05-03 20:16 | 47.51840 | 4.13350 | 34025 ft | 442 kts | 330° |
| 2026-05-03 20:16 | 47.57452 | 4.09601 | 34015 ft | 441 kts | 329° |
| 2026-05-03 20:17 | 47.63060 | 4.05851 | 34010 ft | 440 kts | 329° |
| 2026-05-03 20:17 | 47.68612 | 4.02136 | 34010 ft | 439 kts | 329° |
| 2026-05-03 20:18 | 47.74188 | 3.98394 | 34013 ft | 438 kts | 329° |
| 2026-05-03 20:18 | 47.79748 | 3.94653 | 34013 ft | 437 kts | 328° |
| 2026-05-03 20:19 | 47.85254 | 3.90935 | 34012 ft | 436 kts | 328° |
| 2026-05-03 20:19 | 47.90804 | 3.87182 | 34009 ft | 436 kts | 328° |
| 2026-05-03 20:20 | 47.96337 | 3.83438 | 34008 ft | 435 kts | 327° |
| 2026-05-03 20:20 | 48.01823 | 3.79711 | 34005 ft | 435 kts | 327° |
| 2026-05-03 20:21 | 48.06453 | 3.76560 | 33998 ft | 435 kts | 327° |
| 2026-05-03 20:21 | 48.11927 | 3.72825 | 33989 ft | 435 kts | 327° |
| 2026-05-03 20:22 | 48.16912 | 3.68064 | 33984 ft | 416 kts | 309° |
| 2026-05-03 20:22 | 48.20864 | 3.61858 | 33978 ft | 410 kts | 304° |
| 2026-05-03 20:23 | 48.24746 | 3.55553 | 33973 ft | 411 kts | 304° |
| 2026-05-03 20:23 | 48.28605 | 3.49288 | 33971 ft | 411 kts | 304° |
| 2026-05-03 20:24 | 48.32495 | 3.42951 | 33972 ft | 412 kts | 304° |
| 2026-05-03 20:24 | 48.36376 | 3.36584 | 33966 ft | 412 kts | 304° |
| 2026-05-03 20:25 | 48.40475 | 3.30480 | 33968 ft | 423 kts | 315° |
| 2026-05-03 20:25 | 48.42996 | 3.28078 | 33962 ft | 434 kts | 325° |
| 2026-05-03 20:25 | 48.45780 | 3.26219 | 33959 ft | 440 kts | 329° |
| 2026-05-03 20:26 | 48.51406 | 3.22663 | 33967 ft | 441 kts | 329° |
| 2026-05-03 20:26 | 48.57083 | 3.19046 | 33966 ft | 441 kts | 328° |
| 2026-05-03 20:27 | 48.62744 | 3.15401 | 33967 ft | 442 kts | 328° |
| 2026-05-03 20:27 | 48.68415 | 3.11743 | 33964 ft | 443 kts | 328° |
| 2026-05-03 20:28 | 48.74061 | 3.08100 | 33961 ft | 444 kts | 328° |
| 2026-05-03 20:28 | 48.79754 | 3.04430 | 33957 ft | 444 kts | 328° |
| 2026-05-03 20:29 | 48.85386 | 3.00598 | 33955 ft | 438 kts | 321° |
| 2026-05-03 20:29 | 48.90682 | 2.95970 | 33947 ft | 438 kts | 321° |
| 2026-05-03 20:30 | 48.95949 | 2.91361 | 33943 ft | 439 kts | 321° |
| 2026-05-03 20:30 | 49.01268 | 2.86701 | 33941 ft | 439 kts | 321° |
| 2026-05-03 20:31 | 49.06536 | 2.82055 | 33938 ft | 440 kts | 321° |
| 2026-05-03 20:31 | 49.11864 | 2.77358 | 33940 ft | 441 kts | 321° |
| 2026-05-03 20:32 | 49.17194 | 2.72652 | 33936 ft | 442 kts | 321° |
| 2026-05-03 20:32 | 49.22502 | 2.67963 | 33936 ft | 443 kts | 321° |
| 2026-05-03 20:33 | 49.27854 | 2.63215 | 33936 ft | 444 kts | 321° |
| 2026-05-03 20:33 | 49.33203 | 2.58457 | 33934 ft | 444 kts | 321° |
| 2026-05-03 20:34 | 49.38553 | 2.53671 | 33936 ft | 445 kts | 321° |
| 2026-05-03 20:34 | 49.43875 | 2.48896 | 33932 ft | 445 kts | 321° |
| 2026-05-03 20:35 | 49.49247 | 2.44086 | 33937 ft | 446 kts | 322° |
| 2026-05-03 20:35 | 49.55103 | 2.40450 | 33934 ft | 461 kts | 336° |
| 2026-05-03 20:36 | 49.61227 | 2.37691 | 33938 ft | 461 kts | 336° |
| 2026-05-03 20:36 | 49.67395 | 2.34893 | 33934 ft | 462 kts | 336° |
| 2026-05-03 20:37 | 49.73579 | 2.32074 | 33937 ft | 462 kts | 336° |
| 2026-05-03 20:37 | 49.79718 | 2.29268 | 33936 ft | 463 kts | 336° |
| 2026-05-03 20:38 | 49.85921 | 2.26425 | 33934 ft | 463 kts | 336° |
| 2026-05-03 20:38 | 49.92108 | 2.23586 | 33935 ft | 463 kts | 336° |
| 2026-05-03 20:39 | 49.98307 | 2.20736 | 33934 ft | 464 kts | 337° |
| 2026-05-03 20:39 | 50.04473 | 2.17890 | 33936 ft | 464 kts | 337° |
| 2026-05-03 20:40 | 50.10674 | 2.15006 | 33939 ft | 465 kts | 337° |
| 2026-05-03 20:40 | 50.16882 | 2.12115 | 33939 ft | 465 kts | 337° |
| 2026-05-03 20:41 | 50.23060 | 2.09235 | 33936 ft | 465 kts | 337° |
| 2026-05-03 20:41 | 50.29271 | 2.06345 | 33942 ft | 465 kts | 337° |
| 2026-05-03 20:42 | 50.35398 | 2.03186 | 33942 ft | 458 kts | 329° |
| 2026-05-03 20:42 | 50.40677 | 1.97921 | 33943 ft | 442 kts | 311° |
| 2026-05-03 20:43 | 50.45279 | 1.91610 | 33939 ft | 442 kts | 311° |
| 2026-05-03 20:43 | 50.49938 | 1.85257 | 33941 ft | 442 kts | 312° |
| 2026-05-03 20:44 | 50.54597 | 1.78907 | 33940 ft | 443 kts | 312° |
| 2026-05-03 20:44 | 50.59243 | 1.72533 | 33945 ft | 443 kts | 312° |
| 2026-05-03 20:45 | 50.63887 | 1.66123 | 33939 ft | 443 kts | 312° |
| 2026-05-03 20:45 | 50.68495 | 1.59758 | 33946 ft | 443 kts | 312° |
| 2026-05-03 20:46 | 50.73136 | 1.53328 | 33944 ft | 443 kts | 312° |
| 2026-05-03 20:46 | 50.77762 | 1.46900 | 33936 ft | 443 kts | 312° |
| 2026-05-03 20:47 | 50.82391 | 1.40464 | 33926 ft | 443 kts | 312° |
| 2026-05-03 20:47 | 50.87016 | 1.34012 | 33929 ft | 443 kts | 313° |
| 2026-05-03 20:48 | 50.91616 | 1.27577 | 33934 ft | 443 kts | 313° |
| 2026-05-03 20:48 | 50.96229 | 1.21105 | 33938 ft | 443 kts | 313° |
| 2026-05-03 20:49 | 51.00853 | 1.14598 | 33944 ft | 443 kts | 312° |
| 2026-05-03 20:49 | 51.05460 | 1.08085 | 33945 ft | 443 kts | 313° |
| 2026-05-03 20:50 | 51.10486 | 1.02240 | 33943 ft | 448 kts | 320° |
| 2026-05-03 20:50 | 51.15586 | 0.96617 | 33943 ft | 448 kts | 320° |
| 2026-05-03 20:51 | 51.20687 | 0.90977 | 33938 ft | 447 kts | 320° |
| 2026-05-03 20:51 | 51.25828 | 0.85254 | 33965 ft | 447 kts | 320° |
| 2026-05-03 20:52 | 51.30898 | 0.79578 | 33971 ft | 447 kts | 320° |
| 2026-05-03 20:52 | 51.36007 | 0.73868 | 33930 ft | 446 kts | 320° |
| 2026-05-03 20:53 | 51.40237 | 0.69127 | 33929 ft | 446 kts | 320° |
| 2026-05-03 20:53 | 51.45320 | 0.63403 | 33923 ft | 446 kts | 320° |
| 2026-05-03 20:54 | 51.50404 | 0.57667 | 33920 ft | 446 kts | 320° |
| 2026-05-03 20:54 | 51.57977 | 0.49124 | 33916 ft | 446 kts | 320° |
| 2026-05-03 20:55 | 51.62876 | 0.43565 | 33914 ft | 446 kts | 320° |
| 2026-05-03 20:55 | 51.67963 | 0.37773 | 33909 ft | 446 kts | 320° |
| 2026-05-03 20:56 | 51.73044 | 0.31959 | 33915 ft | 447 kts | 320° |
| 2026-05-03 20:56 | 51.78123 | 0.26132 | 33918 ft | 447 kts | 320° |
| 2026-05-03 20:57 | 51.83189 | 0.20326 | 33920 ft | 447 kts | 320° |
| 2026-05-03 20:57 | 51.88269 | 0.14476 | 33918 ft | 447 kts | 320° |
| 2026-05-03 20:58 | 51.93359 | 0.08608 | 33914 ft | 448 kts | 320° |
| 2026-05-03 20:58 | 51.98408 | 0.02769 | 33907 ft | 448 kts | 320° |
| 2026-05-03 20:59 | 52.03571 | -0.02948 | 33898 ft | 451 kts | 328° |
| 2026-05-03 20:59 | 52.09123 | -0.07801 | 33893 ft | 452 kts | 328° |
| 2026-05-03 21:00 | 52.13746 | -0.11848 | 33887 ft | 452 kts | 328° |
| 2026-05-03 21:00 | 52.20195 | -0.17522 | 33887 ft | 452 kts | 328° |
| 2026-05-03 21:01 | 52.25750 | -0.22416 | 33888 ft | 452 kts | 328° |
| 2026-05-03 21:01 | 52.31252 | -0.27278 | 33893 ft | 452 kts | 328° |
| 2026-05-03 21:02 | 52.36785 | -0.32177 | 33903 ft | 452 kts | 328° |
| 2026-05-03 21:02 | 52.42318 | -0.37093 | 33903 ft | 452 kts | 328° |
| 2026-05-03 21:03 | 52.47851 | -0.42027 | 33908 ft | 451 kts | 328° |
| 2026-05-03 21:03 | 52.53373 | -0.46980 | 33911 ft | 451 kts | 328° |
| 2026-05-03 21:04 | 52.58852 | -0.51890 | 33929 ft | 450 kts | 328° |
| 2026-05-03 21:04 | 52.64359 | -0.56835 | 33931 ft | 450 kts | 328° |
| 2026-05-03 21:05 | 52.69862 | -0.61793 | 33934 ft | 449 kts | 328° |
| 2026-05-03 21:05 | 52.75325 | -0.66726 | 33936 ft | 448 kts | 328° |
| 2026-05-03 21:06 | 52.80802 | -0.71684 | 33953 ft | 447 kts | 328° |
| 2026-05-03 21:06 | 52.86265 | -0.76666 | 33952 ft | 446 kts | 328° |
| 2026-05-03 21:07 | 52.91707 | -0.81643 | 33954 ft | 445 kts | 328° |
| 2026-05-03 21:07 | 52.97103 | -0.86578 | 33957 ft | 445 kts | 328° |
| 2026-05-03 21:08 | 53.02536 | -0.91560 | 33950 ft | 444 kts | 328° |
| 2026-05-03 21:08 | 53.07948 | -0.96538 | 33895 ft | 437 kts | 328° |
| 2026-05-03 21:09 | 53.13234 | -1.01413 | 33933 ft | 435 kts | 328° |
| 2026-05-03 21:09 | 53.18531 | -1.06315 | 33943 ft | 434 kts | 328° |
| 2026-05-03 21:10 | 53.23826 | -1.11207 | 33946 ft | 434 kts | 328° |
| 2026-05-03 21:10 | 53.29079 | -1.16096 | 33948 ft | 434 kts | 328° |
| 2026-05-03 21:11 | 53.34305 | -1.20980 | 33956 ft | 433 kts | 328° |
| 2026-05-03 21:11 | 53.39496 | -1.25711 | 33953 ft | 435 kts | 333° |
| 2026-05-03 21:12 | 53.45345 | -1.28425 | 33957 ft | 440 kts | 352° |
| 2026-05-03 21:12 | 53.48406 | -1.28846 | 33731 ft | 443 kts | 353° |
| 2026-05-03 21:12 | 53.51499 | -1.29237 | 33066 ft | 443 kts | 354° |
| 2026-05-03 21:13 | 53.54565 | -1.29611 | 32580 ft | 439 kts | 353° |
| 2026-05-03 21:13 | 53.57562 | -1.30412 | 32060 ft | 432 kts | 342° |
| 2026-05-03 21:13 | 53.60384 | -1.32033 | 31568 ft | 425 kts | 332° |
| 2026-05-03 21:13 | 53.62965 | -1.34369 | 31085 ft | 418 kts | 326° |
| 2026-05-03 21:14 | 53.65453 | -1.36891 | 30600 ft | 415 kts | 326° |
| 2026-05-03 21:14 | 53.67926 | -1.39401 | 30121 ft | 412 kts | 326° |
| 2026-05-03 21:14 | 53.70350 | -1.41869 | 29604 ft | 409 kts | 326° |
| 2026-05-03 21:14 | 53.72772 | -1.44336 | 29160 ft | 404 kts | 326° |
| 2026-05-03 21:15 | 53.75170 | -1.46777 | 28707 ft | 399 kts | 326° |
| 2026-05-03 21:15 | 53.77522 | -1.49169 | 28277 ft | 395 kts | 326° |
| 2026-05-03 21:15 | 53.79877 | -1.51568 | 27838 ft | 390 kts | 326° |
| 2026-05-03 21:15 | 53.82204 | -1.53947 | 27396 ft | 387 kts | 326° |
| 2026-05-03 21:16 | 53.84497 | -1.56292 | 26963 ft | 384 kts | 326° |
| 2026-05-03 21:16 | 53.86780 | -1.58630 | 26518 ft | 381 kts | 326° |
| 2026-05-03 21:16 | 53.89017 | -1.60923 | 26078 ft | 379 kts | 326° |
| 2026-05-03 21:16 | 53.91271 | -1.63236 | 25634 ft | 376 kts | 326° |
| 2026-05-03 21:17 | 53.93510 | -1.65537 | 25167 ft | 374 kts | 326° |
| 2026-05-03 21:17 | 53.94985 | -1.67055 | 24865 ft | 373 kts | 326° |
| 2026-05-03 21:17 | 53.97954 | -1.70123 | 24230 ft | 372 kts | 327° |
| 2026-05-03 21:17 | 54.00173 | -1.72424 | 23755 ft | 371 kts | 326° |
| 2026-05-03 21:18 | 54.02380 | -1.74712 | 23230 ft | 370 kts | 327° |
| 2026-05-03 21:18 | 54.04544 | -1.76953 | 22748 ft | 368 kts | 326° |
| 2026-05-03 21:18 | 54.06728 | -1.79216 | 22277 ft | 365 kts | 326° |
| 2026-05-03 21:18 | 54.08897 | -1.81460 | 21807 ft | 363 kts | 327° |
| 2026-05-03 21:19 | 54.11058 | -1.83666 | 21372 ft | 360 kts | 330° |
| 2026-05-03 21:19 | 54.13360 | -1.85238 | 20969 ft | 358 kts | 345° |
| 2026-05-03 21:19 | 54.15806 | -1.85822 | 20651 ft | 354 kts | 357° |
| 2026-05-03 21:19 | 54.18290 | -1.85421 | 20020 ft | 360 kts | 9° |
| 2026-05-03 21:20 | 54.20755 | -1.84633 | 19563 ft | 358 kts | 9° |
| 2026-05-03 21:20 | 54.23206 | -1.83859 | 19114 ft | 357 kts | 9° |
| 2026-05-03 21:20 | 54.25624 | -1.83101 | 18673 ft | 356 kts | 9° |
| 2026-05-03 21:20 | 54.28066 | -1.82337 | 18231 ft | 355 kts | 9° |
| 2026-05-03 21:21 | 54.30496 | -1.81579 | 17796 ft | 352 kts | 9° |
| 2026-05-03 21:21 | 54.32910 | -1.80825 | 17319 ft | 351 kts | 9° |
| 2026-05-03 21:21 | 54.35296 | -1.80078 | 16971 ft | 346 kts | 9° |
| 2026-05-03 21:21 | 54.37631 | -1.79342 | 16803 ft | 331 kts | 9° |
| 2026-05-03 21:22 | 54.39830 | -1.78644 | 16315 ft | 322 kts | 9° |
| 2026-05-03 21:22 | 54.42062 | -1.77938 | 15708 ft | 318 kts | 9° |
| 2026-05-03 21:22 | 54.44203 | -1.77262 | 15103 ft | 315 kts | 9° |
| 2026-05-03 21:22 | 54.46361 | -1.76582 | 14510 ft | 312 kts | 9° |
| 2026-05-03 21:23 | 54.48495 | -1.75908 | 13932 ft | 310 kts | 9° |
| 2026-05-03 21:23 | 54.50603 | -1.75239 | 13334 ft | 306 kts | 9° |
| 2026-05-03 21:23 | 54.52693 | -1.74572 | 12682 ft | 303 kts | 9° |
| 2026-05-03 21:23 | 54.54737 | -1.73920 | 12081 ft | 300 kts | 9° |
| 2026-05-03 21:24 | 54.56781 | -1.73272 | 11481 ft | 296 kts | 9° |
| 2026-05-03 21:24 | 54.58796 | -1.72634 | 10898 ft | 293 kts | 9° |
| 2026-05-03 21:24 | 54.60784 | -1.71999 | 10357 ft | 288 kts | 10° |
| 2026-05-03 21:24 | 54.62742 | -1.71369 | 9787 ft | 284 kts | 10° |
| 2026-05-03 21:25 | 54.64024 | -1.70956 | 9370 ft | 282 kts | 10° |
| 2026-05-03 21:25 | 54.65905 | -1.70354 | 9108 ft | 265 kts | 11° |
| 2026-05-03 21:25 | 54.67690 | -1.69784 | 8977 ft | 255 kts | 11° |
| 2026-05-03 21:25 | 54.69401 | -1.69233 | 8815 ft | 246 kts | 11° |
| 2026-05-03 21:26 | 54.71091 | -1.68703 | 8294 ft | 252 kts | 10° |
| 2026-05-03 21:26 | 54.72890 | -1.68161 | 7621 ft | 266 kts | 11° |
| 2026-05-03 21:26 | 54.74671 | -1.67548 | 7497 ft | 254 kts | 8° |
| 2026-05-03 21:26 | 54.76378 | -1.67848 | 7370 ft | 245 kts | 338° |
| 2026-05-03 21:27 | 54.77719 | -1.69514 | 7189 ft | 240 kts | 315° |
| 2026-05-03 21:27 | 54.78803 | -1.71706 | 6859 ft | 239 kts | 311° |
| 2026-05-03 21:27 | 54.79838 | -1.73958 | 6535 ft | 238 kts | 310° |
| 2026-05-03 21:27 | 54.80857 | -1.76205 | 6202 ft | 237 kts | 310° |
| 2026-05-03 21:28 | 54.81871 | -1.78459 | 5907 ft | 236 kts | 310° |
| 2026-05-03 21:28 | 54.82876 | -1.80701 | 5645 ft | 235 kts | 310° |
| 2026-05-03 21:28 | 54.83876 | -1.82945 | 5397 ft | 234 kts | 310° |
| 2026-05-03 21:28 | 54.84859 | -1.85155 | 5138 ft | 233 kts | 310° |
| 2026-05-03 21:29 | 54.85844 | -1.87380 | 4880 ft | 232 kts | 311° |
| 2026-05-03 21:29 | 54.87038 | -1.89174 | 4624 ft | 225 kts | 334° |
| 2026-05-03 21:29 | 54.88461 | -1.90321 | 4357 ft | 224 kts | 339° |
| 2026-05-03 21:29 | 54.89904 | -1.91352 | 4104 ft | 222 kts | 340° |
| 2026-05-03 21:30 | 54.91306 | -1.92333 | 3980 ft | 212 kts | 340° |
| 2026-05-03 21:30 | 54.92636 | -1.93263 | 3851 ft | 204 kts | 340° |
| 2026-05-03 21:30 | 54.93925 | -1.94170 | 3727 ft | 195 kts | 340° |
| 2026-05-03 21:30 | 54.95202 | -1.94875 | 3386 ft | 191 kts | 359° |
| 2026-05-03 21:31 | 54.96463 | -1.94383 | 3186 ft | 183 kts | 29° |
| 2026-05-03 21:31 | 54.97367 | -1.92938 | 3015 ft | 173 kts | 57° |
| 2026-05-03 21:31 | 54.97884 | -1.91107 | 2908 ft | 163 kts | 63° |
| 2026-05-03 21:31 | 54.98356 | -1.89348 | 2766 ft | 163 kts | 63° |
| 2026-05-03 21:32 | 54.98832 | -1.87572 | 2519 ft | 160 kts | 63° |
| 2026-05-03 21:32 | 54.99299 | -1.85830 | 2293 ft | 158 kts | 63° |
| 2026-05-03 21:32 | 54.99759 | -1.84109 | 2069 ft | 154 kts | 63° |
| 2026-05-03 21:32 | 55.00198 | -1.82469 | 1853 ft | 144 kts | 63° |
| 2026-05-03 21:33 | 55.00610 | -1.80925 | 1688 ft | 138 kts | 63° |
| 2026-05-03 21:33 | 55.01012 | -1.79421 | 1484 ft | 136 kts | 64° |
| 2026-05-03 21:33 | 55.01410 | -1.77932 | 1278 ft | 135 kts | 63° |
| 2026-05-03 21:33 | 55.01799 | -1.76457 | 1083 ft | 135 kts | 64° |
| 2026-05-03 21:34 | 55.02195 | -1.74964 | 861 ft | 135 kts | 63° |
| 2026-05-03 21:34 | 55.02596 | -1.73478 | 686 ft | 135 kts | 63° |
| 2026-05-03 21:34 | 55.02991 | -1.71984 | 506 ft | 134 kts | 63° |
| 2026-05-03 21:34 | 55.03388 | -1.70501 | 316 ft | 135 kts | 63° |
| 2026-05-03 21:35 | 55.03730 | -1.69213 | 265 ft | 86 kts | 65° |
| 2026-05-03 21:35 | 55.03879 | -1.68651 | 261 ft | 36 kts | 65° |
| 2026-05-03 21:35 | 55.03986 | -1.68369 | 258 ft | 23 kts | 36° |
| 2026-05-03 21:35 | 55.04079 | -1.68252 | 257 ft | 12 kts | 35° |
| 2026-05-03 21:36 | 55.04150 | -1.68268 | 257 ft | 11 kts | 299° |
| 2026-05-03 21:36 | 55.04137 | -1.68380 | 258 ft | 8 kts | 246° |
| 2026-05-03 21:36 | 55.04112 | -1.68472 | 259 ft | 11 kts | 245° |
| 2026-05-03 21:36 | 55.04068 | -1.68632 | 260 ft | 18 kts | 244° |
| 2026-05-03 21:37 | 55.04008 | -1.68854 | 263 ft | 20 kts | 245° |
| 2026-05-03 21:37 | 55.03951 | -1.69073 | 265 ft | 19 kts | 245° |
| 2026-05-03 21:37 | 55.03899 | -1.69277 | 267 ft | 17 kts | 246° |
| 2026-05-03 21:37 | 55.03853 | -1.69453 | 268 ft | 15 kts | 245° |
| 2026-05-03 21:38 | 55.03815 | -1.69613 | 269 ft | 16 kts | 252° |
| 2026-05-03 21:38 | 55.03786 | -1.69831 | 271 ft | 21 kts | 260° |
| 2026-05-03 21:38 | 55.03774 | -1.70083 | 269 ft | 19 kts | 270° |
| 2026-05-03 21:38 | 55.03780 | -1.70284 | 268 ft | 14 kts | 274° |
| 2026-05-03 21:39 | 55.03773 | -1.70411 | 268 ft | 8 kts | 225° |
| 2026-05-03 21:39 | 55.03721 | -1.70434 | 270 ft | 9 kts | 185° |
| 2026-05-03 21:39 | 55.03652 | -1.70443 | 273 ft | 9 kts | 185° |
| 2026-05-03 21:39 | 55.03602 | -1.70522 | 274 ft | 13 kts | 246° |
| 2026-05-03 21:40 | 55.03594 | -1.70668 | 275 ft | 11 kts | 271° |
| 2026-05-03 21:40 | 55.03600 | -1.70758 | 275 ft | 1 kts | 296° |
| 2026-05-03 21:40 | 55.03625 | -1.70781 | 275 ft | 5 kts | 348° |
| 2026-05-03 21:40 | 55.03658 | -1.70780 | 273 ft | 3 kts | 6° |
| 2026-05-03 21:41 | 55.03668 | -1.70778 | 273 ft | 0 kts | 6° |